San Antonio, Texas
Traffic Map
Current Weather Conditions
San Antonio, Texas
Clear
Clear
18°
Feels Like: 18°
Wind Chill: 18° Ceiling: Unl
Heat Index: 18° Visibility: 10mi
Dew Point: 16° Wind: 7mph
Humidity: 87% Direction: 30° (NNE)
Pressure: 30.19in Gusts: 0mph
Raw Report DataKSKF 311258Z AUTO 03006KT 10SM CLR 18/16 A3019 RMK AO2 SLP219 T01840162 $
Traffic Incident Summary
Active as of:
Severity:
Category:
InformationThere was an issue retrieving the traffic information for this location. Please try a different location or try again shortly.
Advertisements
Track Severe Weather on mobile